Terminal Aerodrome Forecast
Issued by NWS Twin Cities, MN

Home | Current Version | Previous Version | Text Only | Print | Product List | Glossary Off
Versions: 1 2 3 4 5 6 7 8 9 10 11 12

291
FTUS43 KMPX 201123
TAFEAU
TAF
KEAU 201123Z 2012/2112 VRB03KT P6SM BKN120
     FM201400 01007KT P6SM BKN120
     FM210200 VRB03KT P6SM BKN200=

USA.gov is the U.S. government's official web portal to all federal, state and local government web resources and services.